.
Local / CommonContents

Fort Wayne - NE Ind.
U N D E R   C O N S T R U C T I O N

Northern Indiana (IWX) Radar

Latest IWX NEXRAD
Base Reflectivity



Latest IWX NEXRAD
Base Velocity

Indiana-Ohio Visible Satellite

For infrared and water vapor imagery, see Great Lakes - Midwest.

Current Conditions

Recent report from the Fort Wayne International Airport

Aug 12, 2020 - 09:54 AM EDT / 2020.08.12 1354 UTC


The skies are mostly cloudy. The temperature is 73.0 F (22.8 C) and the dew point is 64.0 F (17.8 C), giving a relative humidity of 73%. The barometric pressure is 30.13 in. Hg (1020 hPa). The wind is from the ENE (060 degrees) at 7 MPH (6 KT), and the visibility is 10 mile(s).

KFWA 121354Z 06006KT 10SM FEW043 FEW160 BKN250 23/18 A3013 RMK AO2 SLP197 T02280178
CoCoRaHS
IN-AL-39
A2 Web Hosting
Creative Commons License
GoDaddy
search engine by freefind advanced

loaded 2020-08-12 10:28:50 • last modified 2015-05-28 14:58:18
Privacy PolicyDisclaimer
• wx.awcolley.com is powered by PmWiki v.2002016 •
• all content (unless otherwise noted) © 2020 A W Colley